sensor_id;sensor_type;location;lat;lon;timestamp;P1;durP1;ratioP1;P2;durP2;ratioP2
11255;SDS011;5685;52.384;13.420;2023-02-02T00:01:59;70.20;;;37.13;;
11255;SDS011;5685;52.384;13.420;2023-02-02T00:05:02;70.67;;;37.40;;
11255;SDS011;5685;52.384;13.420;2023-02-02T00:08:06;70.63;;;37.40;;
11255;SDS011;5685;52.384;13.420;2023-02-02T00:11:08;70.53;;;37.20;;
11255;SDS011;5685;52.384;13.420;2023-02-02T00:14:13;70.37;;;37.20;;
11255;SDS011;5685;52.384;13.420;2023-02-02T00:17:16;70.73;;;37.37;;
11255;SDS011;5685;52.384;13.420;2023-02-02T00:20:19;70.53;;;37.30;;
11255;SDS011;5685;52.384;13.420;2023-02-02T00:23:23;70.33;;;37.20;;
11255;SDS011;5685;52.384;13.420;2023-02-02T00:26:26;69.97;;;37.07;;
11255;SDS011;5685;52.384;13.420;2023-02-02T00:29:30;70.37;;;37.30;;
11255;SDS011;5685;52.384;13.420;2023-02-02T00:32:33;70.03;;;37.00;;
11255;SDS011;5685;52.384;13.420;2023-02-02T00:35:38;70.40;;;37.23;;
11255;SDS011;5685;52.384;13.420;2023-02-02T00:38:42;70.33;;;37.13;;
11255;SDS011;5685;52.384;13.420;2023-02-02T00:41:45;70.70;;;37.23;;
11255;SDS011;5685;52.384;13.420;2023-02-02T00:44:50;70.30;;;37.13;;
11255;SDS011;5685;52.384;13.420;2023-02-02T00:48:10;70.60;;;37.20;;
11255;SDS011;5685;52.384;13.420;2023-02-02T00:51:13;70.03;;;37.10;;
11255;SDS011;5685;52.384;13.420;2023-02-02T00:54:15;70.67;;;37.30;;
11255;SDS011;5685;52.384;13.420;2023-02-02T00:57:18;70.40;;;37.27;;
11255;SDS011;5685;52.384;13.420;2023-02-02T01:03:59;70.80;;;37.47;;
11255;SDS011;5685;52.384;13.420;2023-02-02T01:07:02;69.67;;;36.83;;
11255;SDS011;5685;52.384;13.420;2023-02-02T01:10:05;70.43;;;37.30;;
11255;SDS011;5685;52.384;13.420;2023-02-02T01:13:09;70.07;;;37.10;;
11255;SDS011;5685;52.384;13.420;2023-02-02T01:16:14;70.03;;;37.13;;
11255;SDS011;5685;52.384;13.420;2023-02-02T01:19:16;70.13;;;37.10;;
11255;SDS011;5685;52.384;13.420;2023-02-02T01:22:19;70.20;;;37.13;;
11255;SDS011;5685;52.384;13.420;2023-02-02T01:25:22;69.90;;;37.10;;
11255;SDS011;5685;52.384;13.420;2023-02-02T01:28:26;70.00;;;37.10;;
11255;SDS011;5685;52.384;13.420;2023-02-02T01:31:31;70.47;;;37.27;;
11255;SDS011;5685;52.384;13.420;2023-02-02T01:34:34;69.60;;;36.80;;
11255;SDS011;5685;52.384;13.420;2023-02-02T01:37:40;69.83;;;36.93;;
11255;SDS011;5685;52.384;13.420;2023-02-02T01:40:44;70.13;;;37.07;;
11255;SDS011;5685;52.384;13.420;2023-02-02T01:43:51;70.00;;;37.17;;
11255;SDS011;5685;52.384;13.420;2023-02-02T01:46:57;70.23;;;37.10;;
11255;SDS011;5685;52.384;13.420;2023-02-02T01:50:00;69.90;;;37.10;;
11255;SDS011;5685;52.384;13.420;2023-02-02T01:53:03;69.63;;;36.80;;
11255;SDS011;5685;52.384;13.420;2023-02-02T01:56:06;70.13;;;37.10;;
11255;SDS011;5685;52.384;13.420;2023-02-02T01:59:13;70.30;;;37.30;;
11255;SDS011;5685;52.384;13.420;2023-02-02T02:02:18;70.03;;;37.17;;
11255;SDS011;5685;52.384;13.420;2023-02-02T02:05:23;69.63;;;37.00;;
11255;SDS011;5685;52.384;13.420;2023-02-02T02:08:30;70.17;;;37.23;;
11255;SDS011;5685;52.384;13.420;2023-02-02T02:11:34;69.50;;;37.03;;
11255;SDS011;5685;52.384;13.420;2023-02-02T02:14:37;69.57;;;37.03;;
11255;SDS011;5685;52.384;13.420;2023-02-02T02:18:03;70.50;;;37.30;;
11255;SDS011;5685;52.384;13.420;2023-02-02T02:21:21;70.30;;;37.27;;
11255;SDS011;5685;52.384;13.420;2023-02-02T02:28:51;70.13;;;37.07;;
11255;SDS011;5685;52.384;13.420;2023-02-02T02:35:34;70.00;;;37.10;;
11255;SDS011;5685;52.384;13.420;2023-02-02T02:38:41;70.40;;;37.30;;
11255;SDS011;5685;52.384;13.420;2023-02-02T02:41:48;70.00;;;37.07;;
11255;SDS011;5685;52.384;13.420;2023-02-02T02:44:53;69.60;;;36.80;;
11255;SDS011;5685;52.384;13.420;2023-02-02T02:47:58;69.63;;;36.90;;
11255;SDS011;5685;52.384;13.420;2023-02-02T02:51:04;70.20;;;37.10;;
11255;SDS011;5685;52.384;13.420;2023-02-02T02:54:08;69.87;;;37.00;;
11255;SDS011;5685;52.384;13.420;2023-02-02T02:57:20;70.37;;;37.17;;
11255;SDS011;5685;52.384;13.420;2023-02-02T03:00:38;69.67;;;36.77;;
11255;SDS011;5685;52.384;13.420;2023-02-02T03:03:53;69.33;;;36.63;;
11255;SDS011;5685;52.384;13.420;2023-02-02T03:07:03;69.83;;;36.90;;
11255;SDS011;5685;52.384;13.420;2023-02-02T03:10:10;70.50;;;37.27;;
11255;SDS011;5685;52.384;13.420;2023-02-02T03:13:13;69.63;;;36.83;;
11255;SDS011;5685;52.384;13.420;2023-02-02T03:16:17;70.27;;;37.10;;
11255;SDS011;5685;52.384;13.420;2023-02-02T03:19:21;69.80;;;36.97;;
11255;SDS011;5685;52.384;13.420;2023-02-02T03:22:24;70.27;;;37.07;;
11255;SDS011;5685;52.384;13.420;2023-02-02T03:25:26;69.57;;;36.90;;
11255;SDS011;5685;52.384;13.420;2023-02-02T03:28:29;69.83;;;36.87;;
11255;SDS011;5685;52.384;13.420;2023-02-02T03:31:31;69.77;;;36.90;;
11255;SDS011;5685;52.384;13.420;2023-02-02T03:34:35;69.97;;;37.07;;
11255;SDS011;5685;52.384;13.420;2023-02-02T03:37:38;69.60;;;36.90;;
11255;SDS011;5685;52.384;13.420;2023-02-02T03:40:40;69.93;;;36.97;;
11255;SDS011;5685;52.384;13.420;2023-02-02T03:43:43;70.43;;;37.20;;
11255;SDS011;5685;52.384;13.420;2023-02-02T03:46:46;69.97;;;36.97;;
11255;SDS011;5685;52.384;13.420;2023-02-02T03:49:50;69.93;;;36.83;;
11255;SDS011;5685;52.384;13.420;2023-02-02T03:52:53;70.17;;;37.07;;
11255;SDS011;5685;52.384;13.420;2023-02-02T03:55:56;70.30;;;37.20;;
11255;SDS011;5685;52.384;13.420;2023-02-02T03:58:58;70.03;;;37.10;;
11255;SDS011;5685;52.384;13.420;2023-02-02T04:02:01;69.73;;;36.90;;
11255;SDS011;5685;52.384;13.420;2023-02-02T04:05:06;69.53;;;36.80;;
11255;SDS011;5685;52.384;13.420;2023-02-02T04:08:09;69.37;;;37.00;;
11255;SDS011;5685;52.384;13.420;2023-02-02T04:11:11;69.90;;;36.90;;
11255;SDS011;5685;52.384;13.420;2023-02-02T04:14:14;70.10;;;37.00;;
11255;SDS011;5685;52.384;13.420;2023-02-02T04:17:17;70.07;;;36.97;;
11255;SDS011;5685;52.384;13.420;2023-02-02T04:20:21;70.43;;;37.23;;
11255;SDS011;5685;52.384;13.420;2023-02-02T04:23:23;70.30;;;37.13;;
11255;SDS011;5685;52.384;13.420;2023-02-02T04:26:27;70.47;;;37.30;;
11255;SDS011;5685;52.384;13.420;2023-02-02T04:29:29;70.13;;;36.97;;
11255;SDS011;5685;52.384;13.420;2023-02-02T04:32:32;70.43;;;37.17;;
11255;SDS011;5685;52.384;13.420;2023-02-02T04:35:36;69.60;;;36.87;;
11255;SDS011;5685;52.384;13.420;2023-02-02T04:38:39;69.77;;;36.73;;
11255;SDS011;5685;52.384;13.420;2023-02-02T04:41:42;70.50;;;37.17;;
11255;SDS011;5685;52.384;13.420;2023-02-02T04:44:44;69.53;;;36.77;;
11255;SDS011;5685;52.384;13.420;2023-02-02T04:47:47;70.17;;;37.03;;
11255;SDS011;5685;52.384;13.420;2023-02-02T04:50:56;70.17;;;36.90;;
11255;SDS011;5685;52.384;13.420;2023-02-02T04:54:00;70.00;;;36.93;;
11255;SDS011;5685;52.384;13.420;2023-02-02T04:57:02;70.10;;;37.00;;
11255;SDS011;5685;52.384;13.420;2023-02-02T05:00:05;69.83;;;36.97;;
11255;SDS011;5685;52.384;13.420;2023-02-02T05:03:10;69.93;;;37.03;;
11255;SDS011;5685;52.384;13.420;2023-02-02T05:06:14;69.77;;;36.87;;
11255;SDS011;5685;52.384;13.420;2023-02-02T05:09:18;69.50;;;36.77;;
11255;SDS011;5685;52.384;13.420;2023-02-02T05:12:21;69.80;;;36.93;;
11255;SDS011;5685;52.384;13.420;2023-02-02T05:15:24;70.07;;;36.90;;
11255;SDS011;5685;52.384;13.420;2023-02-02T05:18:27;70.13;;;36.97;;
11255;SDS011;5685;52.384;13.420;2023-02-02T05:21:32;69.97;;;36.93;;
11255;SDS011;5685;52.384;13.420;2023-02-02T05:24:35;70.03;;;37.00;;
11255;SDS011;5685;52.384;13.420;2023-02-02T05:27:37;69.27;;;36.70;;
11255;SDS011;5685;52.384;13.420;2023-02-02T05:30:40;69.87;;;36.93;;
11255;SDS011;5685;52.384;13.420;2023-02-02T05:33:43;70.27;;;37.10;;
11255;SDS011;5685;52.384;13.420;2023-02-02T05:36:47;70.40;;;37.03;;
11255;SDS011;5685;52.384;13.420;2023-02-02T05:39:50;70.33;;;37.00;;
11255;SDS011;5685;52.384;13.420;2023-02-02T05:42:53;69.50;;;36.87;;
11255;SDS011;5685;52.384;13.420;2023-02-02T05:45:55;70.07;;;36.90;;
11255;SDS011;5685;52.384;13.420;2023-02-02T05:48:58;69.57;;;36.80;;
11255;SDS011;5685;52.384;13.420;2023-02-02T05:52:05;69.80;;;36.87;;
11255;SDS011;5685;52.384;13.420;2023-02-02T05:55:08;70.60;;;37.10;;
11255;SDS011;5685;52.384;13.420;2023-02-02T05:58:11;69.83;;;36.83;;
11255;SDS011;5685;52.384;13.420;2023-02-02T06:01:14;70.37;;;37.07;;
11255;SDS011;5685;52.384;13.420;2023-02-02T06:04:17;69.40;;;36.67;;
11255;SDS011;5685;52.384;13.420;2023-02-02T06:07:22;70.47;;;37.20;;
11255;SDS011;5685;52.384;13.420;2023-02-02T06:10:25;70.37;;;37.10;;
11255;SDS011;5685;52.384;13.420;2023-02-02T06:13:27;70.40;;;37.07;;
11255;SDS011;5685;52.384;13.420;2023-02-02T06:16:31;69.97;;;37.07;;
11255;SDS011;5685;52.384;13.420;2023-02-02T06:19:34;70.40;;;37.07;;
11255;SDS011;5685;52.384;13.420;2023-02-02T06:22:38;70.10;;;36.97;;
11255;SDS011;5685;52.384;13.420;2023-02-02T06:25:41;70.20;;;37.20;;
11255;SDS011;5685;52.384;13.420;2023-02-02T06:28:47;70.00;;;37.00;;
11255;SDS011;5685;52.384;13.420;2023-02-02T06:31:51;69.87;;;36.90;;
11255;SDS011;5685;52.384;13.420;2023-02-02T06:34:53;69.67;;;37.00;;
11255;SDS011;5685;52.384;13.420;2023-02-02T06:37:58;70.20;;;37.00;;
11255;SDS011;5685;52.384;13.420;2023-02-02T06:41:01;70.10;;;37.00;;
11255;SDS011;5685;52.384;13.420;2023-02-02T06:44:03;70.20;;;37.17;;
11255;SDS011;5685;52.384;13.420;2023-02-02T06:47:06;70.17;;;37.00;;
11255;SDS011;5685;52.384;13.420;2023-02-02T06:50:09;69.87;;;36.93;;
11255;SDS011;5685;52.384;13.420;2023-02-02T06:53:14;70.33;;;36.97;;
11255;SDS011;5685;52.384;13.420;2023-02-02T06:56:21;70.17;;;36.93;;
11255;SDS011;5685;52.384;13.420;2023-02-02T06:59:24;69.70;;;36.73;;
11255;SDS011;5685;52.384;13.420;2023-02-02T07:02:27;69.87;;;36.80;;
11255;SDS011;5685;52.384;13.420;2023-02-02T07:05:30;69.77;;;36.73;;
11255;SDS011;5685;52.384;13.420;2023-02-02T07:08:35;70.00;;;36.80;;
11255;SDS011;5685;52.384;13.420;2023-02-02T07:11:38;69.87;;;36.90;;
11255;SDS011;5685;52.384;13.420;2023-02-02T07:14:41;70.07;;;36.93;;
11255;SDS011;5685;52.384;13.420;2023-02-02T07:17:43;70.30;;;36.90;;
11255;SDS011;5685;52.384;13.420;2023-02-02T07:20:46;69.70;;;36.80;;
11255;SDS011;5685;52.384;13.420;2023-02-02T07:23:50;69.93;;;36.87;;
11255;SDS011;5685;52.384;13.420;2023-02-02T07:26:53;69.83;;;36.87;;
11255;SDS011;5685;52.384;13.420;2023-02-02T07:29:57;69.83;;;36.70;;
11255;SDS011;5685;52.384;13.420;2023-02-02T07:32:59;70.43;;;37.10;;
11255;SDS011;5685;52.384;13.420;2023-02-02T07:36:02;70.23;;;36.97;;
11255;SDS011;5685;52.384;13.420;2023-02-02T07:39:07;70.20;;;37.03;;
11255;SDS011;5685;52.384;13.420;2023-02-02T07:42:10;70.40;;;37.13;;
11255;SDS011;5685;52.384;13.420;2023-02-02T07:45:13;70.23;;;36.97;;
11255;SDS011;5685;52.384;13.420;2023-02-02T07:48:16;69.63;;;36.90;;
11255;SDS011;5685;52.384;13.420;2023-02-02T07:51:18;70.00;;;36.90;;
11255;SDS011;5685;52.384;13.420;2023-02-02T07:54:23;70.07;;;37.03;;
11255;SDS011;5685;52.384;13.420;2023-02-02T07:57:25;70.27;;;37.20;;
11255;SDS011;5685;52.384;13.420;2023-02-02T08:00:28;70.40;;;37.17;;
11255;SDS011;5685;52.384;13.420;2023-02-02T08:03:31;69.60;;;36.80;;
11255;SDS011;5685;52.384;13.420;2023-02-02T08:06:35;69.83;;;36.97;;
11255;SDS011;5685;52.384;13.420;2023-02-02T08:09:44;69.73;;;36.77;;
11255;SDS011;5685;52.384;13.420;2023-02-02T08:12:47;69.80;;;36.90;;
11255;SDS011;5685;52.384;13.420;2023-02-02T08:15:50;69.40;;;36.77;;
11255;SDS011;5685;52.384;13.420;2023-02-02T08:18:52;69.77;;;36.90;;
11255;SDS011;5685;52.384;13.420;2023-02-02T08:21:55;70.07;;;36.80;;
11255;SDS011;5685;52.384;13.420;2023-02-02T08:25:00;70.03;;;37.07;;
11255;SDS011;5685;52.384;13.420;2023-02-02T08:28:02;69.73;;;36.90;;
11255;SDS011;5685;52.384;13.420;2023-02-02T08:31:06;69.80;;;37.00;;
11255;SDS011;5685;52.384;13.420;2023-02-02T08:34:09;70.13;;;37.00;;
11255;SDS011;5685;52.384;13.420;2023-02-02T08:37:13;69.40;;;36.80;;
11255;SDS011;5685;52.384;13.420;2023-02-02T08:40:17;69.77;;;36.87;;
11255;SDS011;5685;52.384;13.420;2023-02-02T08:43:20;69.80;;;36.93;;
11255;SDS011;5685;52.384;13.420;2023-02-02T08:46:23;69.47;;;36.77;;
11255;SDS011;5685;52.384;13.420;2023-02-02T08:49:26;70.03;;;37.03;;
11255;SDS011;5685;52.384;13.420;2023-02-02T08:52:29;69.70;;;37.00;;
11255;SDS011;5685;52.384;13.420;2023-02-02T08:55:33;69.63;;;37.00;;
11255;SDS011;5685;52.384;13.420;2023-02-02T08:58:35;69.87;;;37.07;;
11255;SDS011;5685;52.384;13.420;2023-02-02T09:01:38;69.50;;;36.67;;
11255;SDS011;5685;52.384;13.420;2023-02-02T09:04:41;69.67;;;36.87;;
11255;SDS011;5685;52.384;13.420;2023-02-02T09:07:44;69.73;;;36.80;;
11255;SDS011;5685;52.384;13.420;2023-02-02T09:10:49;70.17;;;37.00;;
11255;SDS011;5685;52.384;13.420;2023-02-02T09:13:53;70.37;;;37.10;;
11255;SDS011;5685;52.384;13.420;2023-02-02T09:16:56;70.87;;;37.27;;
11255;SDS011;5685;52.384;13.420;2023-02-02T09:19:59;70.00;;;36.97;;
11255;SDS011;5685;52.384;13.420;2023-02-02T09:23:02;70.30;;;37.10;;
11255;SDS011;5685;52.384;13.420;2023-02-02T09:26:09;69.97;;;37.00;;
11255;SDS011;5685;52.384;13.420;2023-02-02T09:29:13;69.63;;;36.90;;
11255;SDS011;5685;52.384;13.420;2023-02-02T09:32:17;69.37;;;36.73;;
11255;SDS011;5685;52.384;13.420;2023-02-02T09:35:20;69.87;;;36.87;;
11255;SDS011;5685;52.384;13.420;2023-02-02T09:38:23;69.73;;;36.90;;
11255;SDS011;5685;52.384;13.420;2023-02-02T09:45:14;70.10;;;37.10;;
11255;SDS011;5685;52.384;13.420;2023-02-02T09:48:22;69.57;;;37.00;;
11255;SDS011;5685;52.384;13.420;2023-02-02T09:51:29;69.73;;;37.10;;
11255;SDS011;5685;52.384;13.420;2023-02-02T09:54:35;69.80;;;37.07;;
11255;SDS011;5685;52.384;13.420;2023-02-02T09:57:42;69.77;;;37.13;;
11255;SDS011;5685;52.384;13.420;2023-02-02T10:00:52;69.97;;;37.00;;
11255;SDS011;5685;52.384;13.420;2023-02-02T10:03:59;69.67;;;36.90;;
11255;SDS011;5685;52.384;13.420;2023-02-02T10:07:05;69.70;;;36.80;;
11255;SDS011;5685;52.384;13.420;2023-02-02T10:10:11;70.37;;;37.20;;
11255;SDS011;5685;52.384;13.420;2023-02-02T10:13:19;69.77;;;36.90;;
11255;SDS011;5685;52.384;13.420;2023-02-02T10:16:27;70.03;;;36.90;;
11255;SDS011;5685;52.384;13.420;2023-02-02T10:19:30;70.33;;;37.10;;
11255;SDS011;5685;52.384;13.420;2023-02-02T10:22:35;69.87;;;36.90;;
11255;SDS011;5685;52.384;13.420;2023-02-02T10:25:37;70.17;;;37.17;;
11255;SDS011;5685;52.384;13.420;2023-02-02T10:28:53;70.40;;;37.17;;
11255;SDS011;5685;52.384;13.420;2023-02-02T10:32:09;70.70;;;37.37;;
11255;SDS011;5685;52.384;13.420;2023-02-02T10:35:28;70.10;;;36.97;;
11255;SDS011;5685;52.384;13.420;2023-02-02T10:38:37;70.67;;;37.27;;
11255;SDS011;5685;52.384;13.420;2023-02-02T10:41:44;70.23;;;37.00;;
11255;SDS011;5685;52.384;13.420;2023-02-02T10:44:52;70.43;;;37.27;;
11255;SDS011;5685;52.384;13.420;2023-02-02T10:47:58;70.20;;;38.00;;
11255;SDS011;5685;52.384;13.420;2023-02-02T10:51:01;69.80;;;36.93;;
11255;SDS011;5685;52.384;13.420;2023-02-02T10:54:09;70.43;;;37.20;;
11255;SDS011;5685;52.384;13.420;2023-02-02T10:57:25;70.20;;;37.17;;
11255;SDS011;5685;52.384;13.420;2023-02-02T11:00:45;70.33;;;37.20;;
11255;SDS011;5685;52.384;13.420;2023-02-02T11:03:51;70.37;;;37.20;;
11255;SDS011;5685;52.384;13.420;2023-02-02T11:07:08;69.80;;;37.10;;
11255;SDS011;5685;52.384;13.420;2023-02-02T11:10:15;70.10;;;37.27;;
11255;SDS011;5685;52.384;13.420;2023-02-02T11:13:20;69.87;;;37.13;;
11255;SDS011;5685;52.384;13.420;2023-02-02T11:16:29;70.20;;;37.27;;
11255;SDS011;5685;52.384;13.420;2023-02-02T11:19:34;69.77;;;37.13;;
11255;SDS011;5685;52.384;13.420;2023-02-02T11:22:38;69.53;;;37.00;;
11255;SDS011;5685;52.384;13.420;2023-02-02T11:25:41;69.80;;;37.00;;
11255;SDS011;5685;52.384;13.420;2023-02-02T11:28:44;69.70;;;37.00;;
11255;SDS011;5685;52.384;13.420;2023-02-02T11:31:49;70.03;;;37.30;;
11255;SDS011;5685;52.384;13.420;2023-02-02T11:35:11;70.00;;;37.17;;
11255;SDS011;5685;52.384;13.420;2023-02-02T11:38:16;69.97;;;37.07;;
11255;SDS011;5685;52.384;13.420;2023-02-02T11:41:18;69.70;;;37.20;;
11255;SDS011;5685;52.384;13.420;2023-02-02T11:44:24;69.93;;;37.10;;
11255;SDS011;5685;52.384;13.420;2023-02-02T11:47:29;69.20;;;36.90;;
11255;SDS011;5685;52.384;13.420;2023-02-02T11:50:35;69.27;;;36.87;;
11255;SDS011;5685;52.384;13.420;2023-02-02T11:53:44;69.90;;;37.00;;
11255;SDS011;5685;52.384;13.420;2023-02-02T11:56:48;69.10;;;36.33;;
11255;SDS011;5685;52.384;13.420;2023-02-02T12:00:04;69.30;;;36.17;;
11255;SDS011;5685;52.384;13.420;2023-02-02T12:03:23;69.53;;;36.33;;
11255;SDS011;5685;52.384;13.420;2023-02-02T12:06:35;70.17;;;36.73;;
11255;SDS011;5685;52.384;13.420;2023-02-02T12:09:38;70.03;;;36.70;;
11255;SDS011;5685;52.384;13.420;2023-02-02T12:12:42;69.93;;;36.67;;
11255;SDS011;5685;52.384;13.420;2023-02-02T12:15:51;69.97;;;36.90;;
11255;SDS011;5685;52.384;13.420;2023-02-02T12:19:18;70.80;;;37.13;;
11255;SDS011;5685;52.384;13.420;2023-02-02T12:22:38;69.57;;;36.60;;
11255;SDS011;5685;52.384;13.420;2023-02-02T12:25:58;70.10;;;36.97;;
11255;SDS011;5685;52.384;13.420;2023-02-02T12:29:21;70.17;;;37.03;;
11255;SDS011;5685;52.384;13.420;2023-02-02T12:32:43;70.17;;;37.03;;
11255;SDS011;5685;52.384;13.420;2023-02-02T12:36:15;69.60;;;36.67;;
11255;SDS011;5685;52.384;13.420;2023-02-02T12:39:30;69.93;;;36.90;;
11255;SDS011;5685;52.384;13.420;2023-02-02T12:42:38;69.90;;;36.97;;
11255;SDS011;5685;52.384;13.420;2023-02-02T12:45:56;70.17;;;37.07;;
11255;SDS011;5685;52.384;13.420;2023-02-02T12:52:45;69.90;;;36.83;;
11255;SDS011;5685;52.384;13.420;2023-02-02T12:55:59;70.17;;;37.17;;
11255;SDS011;5685;52.384;13.420;2023-02-02T12:59:06;69.33;;;36.70;;
11255;SDS011;5685;52.384;13.420;2023-02-02T13:02:16;69.93;;;36.90;;
11255;SDS011;5685;52.384;13.420;2023-02-02T13:05:32;69.87;;;37.07;;
11255;SDS011;5685;52.384;13.420;2023-02-02T13:08:41;70.00;;;37.10;;
11255;SDS011;5685;52.384;13.420;2023-02-02T13:11:50;69.97;;;37.03;;
11255;SDS011;5685;52.384;13.420;2023-02-02T13:14:55;70.10;;;37.00;;
11255;SDS011;5685;52.384;13.420;2023-02-02T13:18:00;70.07;;;37.03;;
11255;SDS011;5685;52.384;13.420;2023-02-02T13:21:07;70.03;;;37.07;;
11255;SDS011;5685;52.384;13.420;2023-02-02T13:24:14;69.50;;;36.77;;
11255;SDS011;5685;52.384;13.420;2023-02-02T13:27:27;69.50;;;36.90;;
11255;SDS011;5685;52.384;13.420;2023-02-02T13:30:31;69.93;;;37.00;;
11255;SDS011;5685;52.384;13.420;2023-02-02T13:33:36;70.33;;;37.33;;
11255;SDS011;5685;52.384;13.420;2023-02-02T13:36:40;70.37;;;37.20;;
11255;SDS011;5685;52.384;13.420;2023-02-02T13:39:47;70.27;;;37.07;;
11255;SDS011;5685;52.384;13.420;2023-02-02T13:42:53;70.00;;;37.20;;
11255;SDS011;5685;52.384;13.420;2023-02-02T13:46:03;70.17;;;37.10;;
11255;SDS011;5685;52.384;13.420;2023-02-02T13:49:14;69.70;;;36.97;;
11255;SDS011;5685;52.384;13.420;2023-02-02T13:52:24;69.67;;;36.90;;
11255;SDS011;5685;52.384;13.420;2023-02-02T13:59:17;70.20;;;37.17;;
11255;SDS011;5685;52.384;13.420;2023-02-02T14:02:39;69.70;;;37.20;;
11255;SDS011;5685;52.384;13.420;2023-02-02T14:05:43;69.73;;;37.10;;
11255;SDS011;5685;52.384;13.420;2023-02-02T14:09:04;69.80;;;37.20;;
11255;SDS011;5685;52.384;13.420;2023-02-02T14:12:08;69.70;;;37.13;;
11255;SDS011;5685;52.384;13.420;2023-02-02T14:15:13;69.90;;;37.00;;
11255;SDS011;5685;52.384;13.420;2023-02-02T14:18:20;69.87;;;37.20;;
11255;SDS011;5685;52.384;13.420;2023-02-02T14:21:58;70.17;;;37.20;;
11255;SDS011;5685;52.384;13.420;2023-02-02T14:25:02;70.10;;;37.37;;
11255;SDS011;5685;52.384;13.420;2023-02-02T14:31:56;69.40;;;37.07;;
11255;SDS011;5685;52.384;13.420;2023-02-02T14:35:50;69.40;;;37.00;;
11255;SDS011;5685;52.384;13.420;2023-02-02T14:39:02;69.40;;;37.00;;
11255;SDS011;5685;52.384;13.420;2023-02-02T14:42:15;69.60;;;37.20;;
11255;SDS011;5685;52.384;13.420;2023-02-02T14:45:41;70.37;;;37.57;;
11255;SDS011;5685;52.384;13.420;2023-02-02T14:48:47;69.80;;;37.17;;
11255;SDS011;5685;52.384;13.420;2023-02-02T14:52:18;70.00;;;37.27;;
11255;SDS011;5685;52.384;13.420;2023-02-02T14:55:22;70.10;;;37.23;;
11255;SDS011;5685;52.384;13.420;2023-02-02T14:58:27;70.23;;;37.33;;
11255;SDS011;5685;52.384;13.420;2023-02-02T15:01:32;70.43;;;37.43;;
11255;SDS011;5685;52.384;13.420;2023-02-02T15:04:37;70.60;;;37.57;;
11255;SDS011;5685;52.384;13.420;2023-02-02T15:07:50;69.97;;;37.23;;
11255;SDS011;5685;52.384;13.420;2023-02-02T15:11:03;69.67;;;37.17;;
11255;SDS011;5685;52.384;13.420;2023-02-02T15:14:25;70.30;;;37.23;;
11255;SDS011;5685;52.384;13.420;2023-02-02T15:17:32;69.67;;;37.10;;
11255;SDS011;5685;52.384;13.420;2023-02-02T15:20:42;70.63;;;37.40;;
11255;SDS011;5685;52.384;13.420;2023-02-02T15:23:47;69.70;;;37.07;;
11255;SDS011;5685;52.384;13.420;2023-02-02T15:26:50;70.20;;;37.37;;
11255;SDS011;5685;52.384;13.420;2023-02-02T15:29:55;70.50;;;37.50;;
11255;SDS011;5685;52.384;13.420;2023-02-02T15:33:04;70.43;;;37.50;;
11255;SDS011;5685;52.384;13.420;2023-02-02T15:36:13;69.87;;;37.40;;
11255;SDS011;5685;52.384;13.420;2023-02-02T15:39:21;69.80;;;37.20;;
11255;SDS011;5685;52.384;13.420;2023-02-02T15:42:29;70.13;;;37.30;;
11255;SDS011;5685;52.384;13.420;2023-02-02T15:45:59;69.63;;;37.20;;
11255;SDS011;5685;52.384;13.420;2023-02-02T15:49:23;69.57;;;37.10;;
11255;SDS011;5685;52.384;13.420;2023-02-02T15:52:32;70.53;;;37.57;;
11255;SDS011;5685;52.384;13.420;2023-02-02T15:55:37;70.33;;;37.40;;
11255;SDS011;5685;52.384;13.420;2023-02-02T15:58:39;70.20;;;37.57;;
11255;SDS011;5685;52.384;13.420;2023-02-02T16:01:43;70.47;;;37.43;;
11255;SDS011;5685;52.384;13.420;2023-02-02T16:04:48;70.07;;;37.33;;
11255;SDS011;5685;52.384;13.420;2023-02-02T16:07:52;70.43;;;37.30;;
11255;SDS011;5685;52.384;13.420;2023-02-02T16:11:02;70.23;;;37.30;;
11255;SDS011;5685;52.384;13.420;2023-02-02T16:14:07;70.63;;;37.70;;
11255;SDS011;5685;52.384;13.420;2023-02-02T16:17:18;70.43;;;37.90;;
11255;SDS011;5685;52.384;13.420;2023-02-02T16:20:21;70.50;;;37.50;;
11255;SDS011;5685;52.384;13.420;2023-02-02T16:23:26;70.30;;;37.43;;
11255;SDS011;5685;52.384;13.420;2023-02-02T16:26:31;70.43;;;37.60;;
11255;SDS011;5685;52.384;13.420;2023-02-02T16:29:34;70.30;;;37.50;;
11255;SDS011;5685;52.384;13.420;2023-02-02T16:32:37;70.17;;;37.53;;
11255;SDS011;5685;52.384;13.420;2023-02-02T16:35:41;70.07;;;37.30;;
11255;SDS011;5685;52.384;13.420;2023-02-02T16:38:45;70.07;;;37.30;;
11255;SDS011;5685;52.384;13.420;2023-02-02T16:41:49;70.47;;;37.37;;
11255;SDS011;5685;52.384;13.420;2023-02-02T16:44:52;70.27;;;37.40;;
11255;SDS011;5685;52.384;13.420;2023-02-02T16:47:56;70.17;;;37.37;;
11255;SDS011;5685;52.384;13.420;2023-02-02T16:51:27;70.47;;;37.40;;
11255;SDS011;5685;52.384;13.420;2023-02-02T16:54:31;70.40;;;37.57;;
11255;SDS011;5685;52.384;13.420;2023-02-02T16:57:34;70.03;;;37.53;;
11255;SDS011;5685;52.384;13.420;2023-02-02T17:00:38;69.87;;;37.20;;
11255;SDS011;5685;52.384;13.420;2023-02-02T17:03:44;70.53;;;37.50;;
11255;SDS011;5685;52.384;13.420;2023-02-02T17:06:50;70.07;;;37.40;;
11255;SDS011;5685;52.384;13.420;2023-02-02T17:13:35;70.67;;;37.67;;
11255;SDS011;5685;52.384;13.420;2023-02-02T17:16:40;70.83;;;37.80;;
11255;SDS011;5685;52.384;13.420;2023-02-02T17:19:43;70.87;;;37.70;;
11255;SDS011;5685;52.384;13.420;2023-02-02T17:22:46;70.80;;;37.73;;
11255;SDS011;5685;52.384;13.420;2023-02-02T17:25:49;69.57;;;37.27;;
11255;SDS011;5685;52.384;13.420;2023-02-02T17:28:55;69.57;;;37.23;;
11255;SDS011;5685;52.384;13.420;2023-02-02T17:31:59;70.23;;;37.57;;
11255;SDS011;5685;52.384;13.420;2023-02-02T17:35:02;69.93;;;37.40;;
11255;SDS011;5685;52.384;13.420;2023-02-02T17:38:13;70.00;;;37.47;;
11255;SDS011;5685;52.384;13.420;2023-02-02T17:41:16;70.20;;;37.57;;
11255;SDS011;5685;52.384;13.420;2023-02-02T17:44:20;69.60;;;37.37;;
11255;SDS011;5685;52.384;13.420;2023-02-02T17:47:23;69.90;;;37.33;;
11255;SDS011;5685;52.384;13.420;2023-02-02T17:50:26;69.93;;;37.30;;
11255;SDS011;5685;52.384;13.420;2023-02-02T17:53:29;70.43;;;37.63;;
11255;SDS011;5685;52.384;13.420;2023-02-02T17:56:32;70.07;;;37.50;;
11255;SDS011;5685;52.384;13.420;2023-02-02T17:59:36;70.77;;;37.93;;
11255;SDS011;5685;52.384;13.420;2023-02-02T18:02:39;70.60;;;37.67;;
11255;SDS011;5685;52.384;13.420;2023-02-02T18:05:41;70.37;;;37.50;;
11255;SDS011;5685;52.384;13.420;2023-02-02T18:08:44;70.90;;;38.40;;
11255;SDS011;5685;52.384;13.420;2023-02-02T18:11:47;70.70;;;37.67;;
11255;SDS011;5685;52.384;13.420;2023-02-02T18:14:51;70.20;;;37.60;;
11255;SDS011;5685;52.384;13.420;2023-02-02T18:17:54;70.20;;;37.50;;
11255;SDS011;5685;52.384;13.420;2023-02-02T18:20:56;70.33;;;37.47;;
11255;SDS011;5685;52.384;13.420;2023-02-02T18:23:59;70.53;;;37.67;;
11255;SDS011;5685;52.384;13.420;2023-02-02T18:27:02;70.60;;;37.50;;
11255;SDS011;5685;52.384;13.420;2023-02-02T18:30:07;70.10;;;37.33;;
11255;SDS011;5685;52.384;13.420;2023-02-02T18:33:11;69.93;;;37.47;;
11255;SDS011;5685;52.384;13.420;2023-02-02T18:36:17;69.80;;;37.43;;
11255;SDS011;5685;52.384;13.420;2023-02-02T18:39:20;69.63;;;37.40;;